createdAt,value
2019-02-23T00:03:08.347Z,57.70
2019-02-23T00:07:59.257Z,58.20
2019-02-23T00:12:50.170Z,58.70
2019-02-23T00:17:41.092Z,59.10
2019-02-23T00:22:32.006Z,59.40
2019-02-23T00:27:22.922Z,59.60
2019-02-23T00:32:13.840Z,59.70
2019-02-23T00:37:04.767Z,59.70
2019-02-23T00:41:55.681Z,60.10
2019-02-23T00:46:46.594Z,60.50
2019-02-23T00:51:37.506Z,59.90
2019-02-23T00:56:28.482Z,58.50
2019-02-23T01:01:19.397Z,57.90
2019-02-23T01:06:10.310Z,58.30
2019-02-23T01:11:01.190Z,58.80
2019-02-23T01:15:52.132Z,59.30
2019-02-23T01:20:43.023Z,59.60
2019-02-23T01:25:33.926Z,59.80
2019-02-23T01:30:25.576Z,60.00
2019-02-23T01:35:16.544Z,60.00
2019-02-23T01:40:07.446Z,60.00
2019-02-23T01:44:58.343Z,60.10
2019-02-23T01:49:58.533Z,59.20
2019-02-23T01:54:40.267Z,58.00
2019-02-23T01:59:31.167Z,58.10
2019-02-23T02:04:22.924Z,58.50
2019-02-23T02:09:13.865Z,58.50
2019-02-23T02:14:04.794Z,59.00
2019-02-23T02:18:55.711Z,59.20
2019-02-23T02:23:46.625Z,59.30
2019-02-23T02:28:37.544Z,59.40
2019-02-23T02:33:28.460Z,59.50
2019-02-23T02:38:19.365Z,59.50
2019-02-23T02:43:10.281Z,59.70
2019-02-23T02:48:01.192Z,59.20
2019-02-23T02:52:52.096Z,57.80
2019-02-23T02:57:43.739Z,57.70
2019-02-23T03:02:35.380Z,58.20
2019-02-23T03:07:26.283Z,58.10
2019-02-23T03:12:17.924Z,59.00
2019-02-23T03:17:09.564Z,59.20
2019-02-23T03:22:01.217Z,59.30
2019-02-23T03:26:52.127Z,59.30
2019-02-23T03:31:43.029Z,59.40
2019-02-23T03:36:34.681Z,59.70
2019-02-23T03:41:25.596Z,59.70
2019-02-23T03:46:16.494Z,59.80
2019-02-23T03:51:08.178Z,57.60
2019-02-23T03:55:59.088Z,57.60
2019-02-23T04:00:50.236Z,57.40
2019-02-23T04:05:41.150Z,58.00
2019-02-23T04:10:32.048Z,58.60
2019-02-23T04:15:22.956Z,59.00
2019-02-23T04:20:13.856Z,59.30
2019-02-23T04:25:05.489Z,59.70
2019-02-23T04:29:57.212Z,59.80
2019-02-23T04:34:48.066Z,59.80
2019-02-23T04:39:38.976Z,60.00
2019-02-23T04:44:29.881Z,60.40
2019-02-23T04:49:21.531Z,59.30
2019-02-23T04:54:12.457Z,59.30
2019-02-23T04:59:03.358Z,58.20
2019-02-23T05:03:55.009Z,58.40
2019-02-23T05:08:46.087Z,58.40
2019-02-23T05:13:36.988Z,59.00
2019-02-23T05:18:27.882Z,59.20
2019-02-23T05:23:18.780Z,59.40
2019-02-23T05:28:10.414Z,59.40
2019-02-23T05:33:02.061Z,59.90
2019-02-23T05:37:52.972Z,59.80
2019-02-23T05:42:43.879Z,60.10
2019-02-23T05:47:35.533Z,60.10
2019-02-23T05:52:26.440Z,60.10
2019-02-23T05:57:18.118Z,57.70
2019-02-23T06:02:09.021Z,57.70
2019-02-23T06:06:59.926Z,58.00
2019-02-23T06:11:50.861Z,58.50
2019-02-23T06:16:41.764Z,58.90
2019-02-23T06:21:32.664Z,59.10
2019-02-23T06:26:24.299Z,59.30
2019-02-23T06:31:15.942Z,59.70
2019-02-23T06:36:07.577Z,60.10
2019-02-23T06:40:59.228Z,60.20
2019-02-23T06:45:50.144Z,60.20
2019-02-23T06:50:41.053Z,60.30
2019-02-23T06:55:31.964Z,60.10
2019-02-23T07:00:23.617Z,57.90
2019-02-23T07:05:14.515Z,57.90
2019-02-23T07:10:07.115Z,58.60
2019-02-23T07:14:58.019Z,58.50
2019-02-23T07:19:48.977Z,59.10
2019-02-23T07:24:39.882Z,59.30
2019-02-23T07:29:30.788Z,59.50
2019-02-23T07:34:21.700Z,59.70
2019-02-23T07:39:12.805Z,59.90
2019-02-23T07:44:03.716Z,60.00
2019-02-23T07:48:54.603Z,60.00
2019-02-23T07:53:46.264Z,59.90
2019-02-23T07:58:37.890Z,58.40
2019-02-23T08:03:28.852Z,58.40
2019-02-23T08:08:19.832Z,57.40
2019-02-23T08:13:10.778Z,57.50
2019-02-23T08:18:01.694Z,58.30
2019-02-23T08:22:52.601Z,58.90
2019-02-23T08:27:43.499Z,59.40
2019-02-23T08:32:34.474Z,59.60
2019-02-23T08:37:25.438Z,60.00
2019-02-23T08:42:16.353Z,60.20
2019-02-23T08:47:07.255Z,60.60
2019-02-23T08:51:59.006Z,60.70
2019-02-23T08:56:50.731Z,61.00
2019-02-23T09:01:42.380Z,59.80
2019-02-23T09:06:33.293Z,59.70
2019-02-23T09:11:24.939Z,59.20
2019-02-23T09:16:15.847Z,59.20
2019-02-23T09:21:07.498Z,59.60
2019-02-23T09:25:58.413Z,59.60
2019-02-23T09:30:49.331Z,60.00
2019-02-23T09:35:40.240Z,60.00
2019-02-23T09:40:31.915Z,60.30
2019-02-23T09:45:22.836Z,60.40
2019-02-23T09:50:13.747Z,60.30
2019-02-23T09:55:04.659Z,60.20
2019-02-23T09:59:55.710Z,60.30
2019-02-23T10:04:46.610Z,59.50
2019-02-23T10:09:37.517Z,58.70
2019-02-23T10:14:28.410Z,58.80
2019-02-23T10:19:20.070Z,59.40
2019-02-23T10:24:10.987Z,59.40
2019-02-23T10:29:01.891Z,59.40
2019-02-23T10:33:53.540Z,59.60
2019-02-23T10:38:44.601Z,59.60
2019-02-23T10:43:35.527Z,59.80
2019-02-23T10:48:26.451Z,59.60
2019-02-23T10:53:17.495Z,58.80
2019-02-23T10:58:09.255Z,56.70
2019-02-23T11:03:00.165Z,56.70
2019-02-23T11:07:51.084Z,57.20
2019-02-23T11:12:42.748Z,58.80
2019-02-23T11:17:33.651Z,58.80
2019-02-23T11:22:24.601Z,59.30
2019-02-23T11:27:15.641Z,59.80
2019-02-23T11:32:06.549Z,60.00
2019-02-23T11:36:57.594Z,59.60
2019-02-23T11:41:48.506Z,60.00
2019-02-23T11:46:39.523Z,59.20
2019-02-23T11:51:30.445Z,56.70
2019-02-23T11:56:21.357Z,57.70
2019-02-23T12:01:12.273Z,58.70
2019-02-23T12:06:03.200Z,59.10
2019-02-23T12:10:54.120Z,58.50
2019-02-23T12:15:45.018Z,57.00
2019-02-23T12:20:35.945Z,56.00
2019-02-23T12:25:26.859Z,55.40
2019-02-23T12:30:17.770Z,54.20
2019-02-23T12:35:08.663Z,55.50
2019-02-23T12:39:59.570Z,55.50
2019-02-23T12:44:50.502Z,56.40
2019-02-23T12:49:41.408Z,56.10
2019-02-23T12:54:32.314Z,56.50
2019-02-23T12:59:23.371Z,56.00
2019-02-23T13:04:14.971Z,55.70
2019-02-23T13:09:15.923Z,55.30
2019-02-23T13:19:40.710Z,55.50
2019-02-23T13:24:43.591Z,55.00
2019-02-23T13:29:40.883Z,54.50
2019-02-23T13:34:43.527Z,54.40
2019-02-23T13:45:03.060Z,53.10
2019-02-23T13:49:55.948Z,53.00
2019-02-23T13:54:50.724Z,52.80
2019-02-23T13:59:48.924Z,52.40
2019-02-23T14:04:45.826Z,52.70
2019-02-23T14:09:43.700Z,52.60
2019-02-23T14:14:37.707Z,52.00
2019-02-23T14:19:33.417Z,51.70
2019-02-23T14:24:49.759Z,51.90
2019-02-23T14:29:39.158Z,51.90
2019-02-23T14:34:37.750Z,52.00
2019-02-23T14:39:45.626Z,51.90
2019-02-23T14:44:42.578Z,50.10
2019-02-23T14:55:05.367Z,52.50
2019-02-23T15:05:44.136Z,53.60
2019-02-23T15:10:44.246Z,53.00
2019-02-23T15:15:41.813Z,53.50
2019-02-23T15:20:37.329Z,53.70
2019-02-23T15:25:36.128Z,53.70
2019-02-23T15:30:29.717Z,53.00
2019-02-23T15:35:20.814Z,52.80
2019-02-23T15:40:21.859Z,52.90
2019-02-23T15:45:15.628Z,53.00
2019-02-23T15:50:13.009Z,53.10
2019-02-23T15:54:57.532Z,53.20
2019-02-23T15:59:49.166Z,53.20
2019-02-23T16:04:40.832Z,53.50
2019-02-23T16:09:31.739Z,53.50
2019-02-23T16:14:22.719Z,53.80
2019-02-23T16:19:13.673Z,54.20
2019-02-23T16:24:04.638Z,54.50
2019-02-23T16:28:55.939Z,54.60
2019-02-23T16:33:46.480Z,54.90
2019-02-23T16:38:37.395Z,54.80
2019-02-23T16:43:28.299Z,53.80
2019-02-23T16:48:19.202Z,54.60
2019-02-23T16:53:10.116Z,54.80
2019-02-23T16:58:01.031Z,55.20
2019-02-23T17:02:52.039Z,55.20
2019-02-23T17:07:42.963Z,55.30
2019-02-23T17:12:33.868Z,55.10
2019-02-23T17:17:25.566Z,54.40
2019-02-23T17:22:16.472Z,54.40
2019-02-23T17:27:07.388Z,54.70
2019-02-23T17:31:58.338Z,54.50
2019-02-23T17:36:49.254Z,54.70
2019-02-23T17:41:40.168Z,55.10
2019-02-23T17:46:31.070Z,55.30
2019-02-23T17:51:22.013Z,55.40
2019-02-23T17:56:14.539Z,55.90
2019-02-23T18:01:04.594Z,54.40
2019-02-23T18:05:56.255Z,54.60
2019-02-23T18:10:47.976Z,55.00
2019-02-23T18:15:39.966Z,54.90
2019-02-23T18:20:29.851Z,55.20
2019-02-23T18:25:20.755Z,55.40
2019-02-23T18:30:14.101Z,55.90
2019-02-23T18:35:02.570Z,56.10
2019-02-23T18:39:53.481Z,56.40
2019-02-23T18:44:45.120Z,54.70
2019-02-23T18:49:36.759Z,54.80
2019-02-23T18:54:27.675Z,54.80
2019-02-23T18:59:18.582Z,55.10
2019-02-23T19:04:10.236Z,55.80
2019-02-23T19:09:01.144Z,55.80
2019-02-23T19:13:52.804Z,56.40
2019-02-23T19:18:43.706Z,56.40
2019-02-23T19:23:34.616Z,56.80
2019-02-23T19:28:26.287Z,55.00
2019-02-23T19:33:17.224Z,55.00
2019-02-23T19:38:08.170Z,54.90
2019-02-23T19:42:59.067Z,55.30
2019-02-23T19:47:49.980Z,54.90
2019-02-23T19:52:40.892Z,55.80
2019-02-23T19:57:31.810Z,56.20
2019-02-23T20:02:22.723Z,56.40
2019-02-23T20:07:13.636Z,56.60
2019-02-23T20:12:04.539Z,56.90
2019-02-23T20:16:55.455Z,55.60
2019-02-23T20:21:46.363Z,54.90
2019-02-23T20:26:37.314Z,54.90
2019-02-23T20:31:28.211Z,55.30
2019-02-23T20:36:19.136Z,55.70
2019-02-23T20:41:10.096Z,55.90
2019-02-23T20:46:01.016Z,56.40
2019-02-23T20:50:51.971Z,56.70
2019-02-23T20:55:43.635Z,57.10
2019-02-23T21:00:34.544Z,57.10
2019-02-23T21:05:25.451Z,56.30
2019-02-23T21:10:16.386Z,55.20
2019-02-23T21:15:07.295Z,55.00
2019-02-23T21:19:58.193Z,55.20
2019-02-23T21:24:49.846Z,56.00
2019-02-23T21:29:40.759Z,56.00
2019-02-23T21:34:38.762Z,56.10
2019-02-23T21:39:29.673Z,56.30
2019-02-23T21:44:20.584Z,56.70
2019-02-23T21:49:11.478Z,57.10
2019-02-23T21:54:09.942Z,56.50
2019-02-23T21:58:54.063Z,56.40
2019-02-23T22:03:44.971Z,55.30
2019-02-23T22:08:35.935Z,55.20
2019-02-23T22:13:26.852Z,55.40
2019-02-23T22:18:17.763Z,55.70
2019-02-23T22:23:08.669Z,56.30
2019-02-23T22:27:59.585Z,56.80
2019-02-23T22:32:50.499Z,57.10
2019-02-23T22:37:41.408Z,57.40
2019-02-23T22:42:32.298Z,57.70
2019-02-23T22:47:23.930Z,57.30
2019-02-23T22:52:15.579Z,56.70
2019-02-23T22:57:07.243Z,55.20
2019-02-23T23:01:58.193Z,55.20
2019-02-23T23:06:49.125Z,55.40
2019-02-23T23:11:40.030Z,55.80
2019-02-23T23:16:30.932Z,56.20
2019-02-23T23:21:21.838Z,56.70
2019-02-23T23:26:12.752Z,57.00
2019-02-23T23:31:03.663Z,57.20
2019-02-23T23:35:54.567Z,57.30
2019-02-23T23:40:46.216Z,57.80
2019-02-23T23:45:37.128Z,57.80
2019-02-23T23:50:28.030Z,57.50
2019-02-23T23:55:19.678Z,55.40
